Dallas, Texas
Current Conditions -  °F | °C
As of 3:53 AM on Thursday 18 Dec 2014 (Local Time) from KDAL Reporting Station
Drizzle Drizzle  
Wind Chill: 39°   Ceiling: 400
Heat Index: 43°   Visibility: 2.5mi
Dew Point: 42°   Wind: 6mph
Humidity: 97%   Direction: 100°E
Pressure: 30.12"   Gusts: NA
Location:  32.78°N, 96.79°W
Report Text: KDAL 180953Z 10005KT 2 1/2SM -DZ BR OVC004 06/06 A3012 RMK AO2 SLP199 P0000 T00610056
Loading
Personal Weather Stations






























Interactive Weather Map New forecast layout! Learn more

10-Day Weather Forecast

Advertisements
Track Severe Weather on mobile